createdAt,value
2023-03-06T00:01:01.295Z,76.79
2023-03-06T00:04:03.002Z,76.55
2023-03-06T00:07:04.696Z,76.30
2023-03-06T00:10:07.016Z,75.62
2023-03-06T00:13:14.030Z,75.22
2023-03-06T00:16:15.656Z,76.39
2023-03-06T00:19:17.337Z,77.32
2023-03-06T00:22:19.079Z,77.45
2023-03-06T00:25:21.580Z,78.40
2023-03-06T00:28:23.484Z,78.37
2023-03-06T00:31:25.224Z,77.56
2023-03-06T00:34:27.199Z,78.12
2023-03-06T00:37:28.827Z,77.19
2023-03-06T00:40:30.471Z,77.96
2023-03-06T00:43:32.135Z,78.06
2023-03-06T00:46:33.775Z,78.83
2023-03-06T00:49:35.657Z,78.94
2023-03-06T00:52:37.422Z,78.27
2023-03-06T00:55:39.075Z,78.89
2023-03-06T00:58:40.800Z,79.12
2023-03-06T01:01:42.480Z,79.50
2023-03-06T01:04:44.324Z,78.91
2023-03-06T01:07:46.062Z,79.09
2023-03-06T01:10:47.694Z,79.25
2023-03-06T01:13:49.744Z,79.10
2023-03-06T01:16:51.471Z,79.53
2023-03-06T01:19:53.127Z,80.54
2023-03-06T01:22:56.637Z,80.43
2023-03-06T01:25:59.086Z,80.11
2023-03-06T01:29:01.322Z,79.82
2023-03-06T01:32:03.084Z,79.45
2023-03-06T01:35:05.630Z,79.43
2023-03-06T01:38:07.370Z,79.41
2023-03-06T01:41:10.958Z,80.69
2023-03-06T01:44:13.800Z,80.26
2023-03-06T01:47:15.532Z,79.44
2023-03-06T01:50:17.343Z,79.42
2023-03-06T01:53:20.186Z,80.43
2023-03-06T01:56:22.968Z,79.52
2023-03-06T01:59:27.009Z,79.73
2023-03-06T02:02:29.019Z,80.42
2023-03-06T02:05:31.211Z,80.17
2023-03-06T02:08:33.499Z,79.16
2023-03-06T02:11:35.153Z,78.40
2023-03-06T02:14:38.188Z,78.41
2023-03-06T02:17:41.705Z,79.16
2023-03-06T02:21:00.448Z,79.47
2023-03-06T02:24:17.361Z,78.76
2023-03-06T02:27:19.983Z,77.98
2023-03-06T02:30:23.690Z,78.87
2023-03-06T02:33:29.342Z,77.76
2023-03-06T02:36:32.660Z,78.83
2023-03-06T02:39:38.201Z,77.73
2023-03-06T02:42:47.223Z,76.97
2023-03-06T02:45:51.310Z,76.41
2023-03-06T02:48:53.210Z,79.04
2023-03-06T02:51:54.905Z,78.92
2023-03-06T02:54:56.690Z,78.40
2023-03-06T02:57:58.512Z,77.29
2023-03-06T03:01:00.220Z,76.95
2023-03-06T03:04:01.861Z,76.92
2023-03-06T03:07:03.566Z,76.92
2023-03-06T03:10:05.648Z,77.24
2023-03-06T03:13:07.291Z,78.58
2023-03-06T03:16:14.180Z,77.54
2023-03-06T03:19:15.818Z,76.71
2023-03-06T03:22:18.506Z,76.93
2023-03-06T03:25:20.745Z,77.42
2023-03-06T03:28:22.389Z,77.53
2023-03-06T03:31:24.252Z,76.77
2023-03-06T03:34:26.237Z,76.49
2023-03-06T03:37:28.037Z,77.71
2023-03-06T03:40:29.796Z,76.87
2023-03-06T03:43:32.189Z,77.56
2023-03-06T03:46:33.966Z,77.43
2023-03-06T03:49:35.638Z,76.85
2023-03-06T03:52:37.399Z,77.14
2023-03-06T03:55:39.448Z,78.32
2023-03-06T03:58:41.117Z,77.10
2023-03-06T04:01:42.829Z,76.88
2023-03-06T04:04:44.538Z,76.54
2023-03-06T04:07:46.377Z,79.17
2023-03-06T04:10:48.044Z,77.14
2023-03-06T04:13:49.686Z,78.01
2023-03-06T04:16:51.363Z,77.20
2023-03-06T04:19:53.179Z,77.85
2023-03-06T04:22:54.790Z,77.08
2023-03-06T04:25:56.476Z,78.47
2023-03-06T04:28:58.660Z,78.27
2023-03-06T04:32:00.340Z,78.32
2023-03-06T04:35:02.356Z,78.62
2023-03-06T04:38:04.528Z,77.68
2023-03-06T04:41:06.161Z,76.42
2023-03-06T04:44:08.622Z,76.08
2023-03-06T04:47:11.236Z,76.22
2023-03-06T04:50:13.270Z,77.56
2023-03-06T04:53:16.787Z,76.67
2023-03-06T04:56:18.864Z,76.39
2023-03-06T04:59:20.565Z,77.79
2023-03-06T05:02:24.290Z,77.08
2023-03-06T05:05:26.698Z,76.88
2023-03-06T05:08:28.527Z,76.10
2023-03-06T05:11:30.539Z,75.99
2023-03-06T05:14:32.305Z,75.86
2023-03-06T05:17:34.182Z,75.62
2023-03-06T05:20:35.809Z,75.55
2023-03-06T05:23:41.106Z,75.13
2023-03-06T05:26:42.756Z,75.98
2023-03-06T05:29:44.495Z,76.75
2023-03-06T05:32:46.212Z,78.32
2023-03-06T05:35:48.822Z,78.67
2023-03-06T05:38:50.500Z,77.84
2023-03-06T05:41:52.134Z,77.51
2023-03-06T05:44:53.794Z,78.00
2023-03-06T05:47:55.431Z,77.40
2023-03-06T05:50:58.348Z,78.39
2023-03-06T05:53:59.982Z,78.33
2023-03-06T05:57:02.138Z,78.77
2023-03-06T06:00:04.474Z,78.11
2023-03-06T06:03:06.138Z,78.14
2023-03-06T06:06:09.772Z,76.95
2023-03-06T06:09:13.849Z,76.32
2023-03-06T06:12:15.677Z,75.37
2023-03-06T06:15:17.421Z,74.74
2023-03-06T06:18:19.118Z,74.45
2023-03-06T06:21:21.046Z,74.67
2023-03-06T06:24:25.124Z,73.70
2023-03-06T06:27:26.816Z,72.78
2023-03-06T06:30:28.579Z,72.36
2023-03-06T06:33:30.239Z,71.66
2023-03-06T06:36:32.510Z,70.92
2023-03-06T06:39:34.141Z,71.22
2023-03-06T06:42:39.909Z,71.05
2023-03-06T06:45:44.215Z,70.25
2023-03-06T06:48:49.349Z,70.22
2023-03-06T06:51:50.985Z,69.43
2023-03-06T06:54:53.171Z,70.76
2023-03-06T06:57:54.836Z,71.29
2023-03-06T07:00:56.492Z,69.47
2023-03-06T07:03:58.281Z,70.93
2023-03-06T07:07:00.256Z,70.40
2023-03-06T07:10:02.801Z,69.89
2023-03-06T07:13:04.454Z,68.74
2023-03-06T07:16:06.622Z,68.64
2023-03-06T07:19:08.682Z,66.90
2023-03-06T07:22:10.393Z,65.91
2023-03-06T07:25:12.598Z,67.20
2023-03-06T07:28:14.433Z,68.25
2023-03-06T07:31:16.211Z,68.38
2023-03-06T07:34:17.881Z,68.50
2023-03-06T07:37:19.876Z,70.37
2023-03-06T07:40:22.092Z,69.74
2023-03-06T07:43:23.746Z,69.86
2023-03-06T07:46:25.536Z,69.68
2023-03-06T07:49:27.185Z,66.53
2023-03-06T07:52:29.463Z,65.15
2023-03-06T07:55:31.128Z,63.69
2023-03-06T07:58:32.744Z,61.23
2023-03-06T08:01:36.262Z,61.80
2023-03-06T08:04:38.239Z,63.58
2023-03-06T08:07:39.937Z,64.25
2023-03-06T08:10:46.854Z,64.79
2023-03-06T08:13:49.384Z,64.87
2023-03-06T08:16:51.330Z,64.96
2023-03-06T08:19:52.970Z,65.15
2023-03-06T08:22:54.629Z,64.79
2023-03-06T08:26:01.119Z,64.42
2023-03-06T08:29:02.952Z,64.99
2023-03-06T08:32:04.922Z,62.00
2023-03-06T08:35:07.189Z,61.50
2023-03-06T08:38:08.864Z,57.40
2023-03-06T08:41:10.577Z,52.63
2023-03-06T08:44:12.916Z,49.04
2023-03-06T08:47:14.579Z,45.91
2023-03-06T08:50:16.400Z,49.36
2023-03-06T08:53:18.389Z,53.09
2023-03-06T08:56:20.020Z,55.28
2023-03-06T08:59:21.668Z,56.95
2023-03-06T09:02:23.417Z,59.74
2023-03-06T09:05:25.203Z,59.60
2023-03-06T09:08:26.852Z,59.34
2023-03-06T09:11:30.314Z,58.63
2023-03-06T09:14:32.186Z,59.05
2023-03-06T09:17:33.861Z,59.10
2023-03-06T09:20:35.621Z,56.39
2023-03-06T09:23:39.607Z,57.16
2023-03-06T09:26:46.206Z,53.66
2023-03-06T09:29:48.806Z,50.97
2023-03-06T09:32:50.441Z,49.39
2023-03-06T09:35:55.080Z,50.29
2023-03-06T09:38:56.890Z,48.96
2023-03-06T09:41:59.205Z,47.84
2023-03-06T09:45:04.713Z,48.05
2023-03-06T09:48:15.017Z,48.99
2023-03-06T09:51:18.830Z,49.81
2023-03-06T09:54:32.883Z,47.85
2023-03-06T09:57:42.782Z,46.38
2023-03-06T10:01:24.948Z,45.36
2023-03-06T10:04:42.640Z,46.53
2023-03-06T10:08:06.430Z,43.99
2023-03-06T10:11:10.835Z,45.82
2023-03-06T10:14:12.403Z,45.68
2023-03-06T10:17:20.822Z,46.59
2023-03-06T10:20:24.549Z,45.90
2023-03-06T10:23:49.144Z,43.92
2023-03-06T10:27:29.584Z,45.54
2023-03-06T10:30:44.739Z,48.85
2023-03-06T10:33:58.510Z,51.08
2023-03-06T10:37:11.842Z,52.35
2023-03-06T10:40:20.093Z,54.16
2023-03-06T10:43:23.741Z,52.88
2023-03-06T10:46:37.377Z,53.31
2023-03-06T10:49:39.119Z,53.16
2023-03-06T10:52:40.759Z,53.78
2023-03-06T10:55:52.184Z,55.71
2023-03-06T10:59:12.484Z,52.67
2023-03-06T11:02:26.057Z,52.57
2023-03-06T11:05:27.731Z,53.60
2023-03-06T11:08:30.772Z,54.64
2023-03-06T11:11:37.793Z,52.88
2023-03-06T11:14:39.767Z,49.71
2023-03-06T11:18:02.920Z,50.83
2023-03-06T11:21:23.398Z,52.07
2023-03-06T11:24:25.260Z,50.92
2023-03-06T11:27:34.601Z,50.85
2023-03-06T11:30:43.082Z,53.19
2023-03-06T11:33:50.586Z,49.89
2023-03-06T11:37:08.337Z,51.91
2023-03-06T11:40:28.957Z,53.54
2023-03-06T11:44:00.832Z,56.15
2023-03-06T11:47:17.254Z,53.98
2023-03-06T11:50:25.637Z,57.56
2023-03-06T11:53:37.000Z,56.53
2023-03-06T11:56:51.780Z,56.53
2023-03-06T12:00:18.300Z,56.66
2023-03-06T12:03:45.056Z,57.31
2023-03-06T12:07:11.055Z,56.92
2023-03-06T12:10:15.585Z,57.48
2023-03-06T12:14:05.287Z,57.16
2023-03-06T12:17:19.397Z,58.11
2023-03-06T12:20:56.149Z,58.31
2023-03-06T12:24:29.819Z,57.75
2023-03-06T12:27:34.434Z,58.77
2023-03-06T12:31:20.254Z,57.56
2023-03-06T12:34:43.709Z,57.72
2023-03-06T12:38:00.050Z,56.12
2023-03-06T12:41:27.742Z,55.67
2023-03-06T12:45:20.649Z,55.58
2023-03-06T12:48:27.525Z,55.36
2023-03-06T12:51:30.209Z,56.55
2023-03-06T12:54:37.281Z,55.86
2023-03-06T12:57:38.945Z,55.50
2023-03-06T13:01:03.705Z,55.96
2023-03-06T13:04:05.696Z,55.60
2023-03-06T13:07:22.818Z,55.38
2023-03-06T13:10:35.835Z,54.75
2023-03-06T13:13:46.140Z,53.48
2023-03-06T13:16:47.833Z,52.37
2023-03-06T13:20:15.642Z,50.63
2023-03-06T13:23:29.612Z,51.33
2023-03-06T13:26:31.225Z,50.01
2023-03-06T13:29:35.911Z,47.79
2023-03-06T13:32:37.639Z,46.90
2023-03-06T13:35:42.297Z,47.93
2023-03-06T13:38:43.978Z,47.91
2023-03-06T13:41:59.306Z,48.29
2023-03-06T13:45:17.910Z,48.25
2023-03-06T13:48:46.224Z,47.45
2023-03-06T13:51:53.688Z,47.61
2023-03-06T13:55:24.177Z,47.72
2023-03-06T13:58:50.814Z,48.11
2023-03-06T14:02:10.067Z,48.50
2023-03-06T14:05:17.098Z,48.80
2023-03-06T14:08:22.692Z,48.66
2023-03-06T14:11:25.173Z,48.20
2023-03-06T14:14:36.044Z,48.48
2023-03-06T14:17:39.189Z,49.73
2023-03-06T14:20:48.488Z,49.11
2023-03-06T14:24:00.399Z,48.96
2023-03-06T14:27:02.698Z,49.29
2023-03-06T14:30:13.620Z,48.95
2023-03-06T14:33:44.501Z,49.02
2023-03-06T14:36:49.207Z,48.43
2023-03-06T14:39:51.867Z,48.67
2023-03-06T14:43:15.675Z,48.39
2023-03-06T14:46:22.480Z,48.16
2023-03-06T14:49:26.225Z,48.50
2023-03-06T14:52:28.341Z,48.15
2023-03-06T14:55:32.855Z,48.43
2023-03-06T14:58:40.386Z,48.89
2023-03-06T15:01:43.583Z,49.00
2023-03-06T15:04:49.156Z,49.33
2023-03-06T15:07:52.812Z,49.34
2023-03-06T15:10:59.684Z,49.52
2023-03-06T15:14:03.872Z,50.41
2023-03-06T15:17:41.923Z,50.02
2023-03-06T15:20:50.215Z,50.33
2023-03-06T15:23:54.406Z,51.12
2023-03-06T15:27:07.091Z,51.40
2023-03-06T15:30:35.738Z,51.03
2023-03-06T15:33:37.746Z,51.48
2023-03-06T15:36:48.436Z,51.88
2023-03-06T15:40:04.403Z,51.23
2023-03-06T15:43:10.933Z,51.31
2023-03-06T15:46:13.321Z,51.57
2023-03-06T15:49:18.367Z,52.35
2023-03-06T15:52:23.199Z,52.76
2023-03-06T15:55:26.208Z,52.80
2023-03-06T15:58:31.669Z,53.46
2023-03-06T16:01:36.081Z,54.34
2023-03-06T16:04:38.696Z,59.32
2023-03-06T16:07:40.494Z,64.54
2023-03-06T16:10:45.090Z,64.03
2023-03-06T16:13:46.977Z,63.50
2023-03-06T16:16:49.706Z,63.83
2023-03-06T16:19:51.681Z,66.35
2023-03-06T16:22:56.705Z,67.89
2023-03-06T16:25:58.444Z,67.79
2023-03-06T16:29:00.950Z,68.01
2023-03-06T16:32:03.214Z,69.36
2023-03-06T16:35:05.432Z,70.75
2023-03-06T16:38:07.793Z,75.99
2023-03-06T16:41:12.139Z,72.67
2023-03-06T16:44:13.875Z,73.50
2023-03-06T16:47:17.271Z,76.62
2023-03-06T16:50:28.735Z,77.20
2023-03-06T16:53:30.683Z,78.08
2023-03-06T16:56:32.342Z,75.92
2023-03-06T16:59:34.194Z,74.16
2023-03-06T17:02:36.586Z,73.57
2023-03-06T17:05:39.399Z,72.37
2023-03-06T17:08:41.726Z,76.17
2023-03-06T17:11:50.054Z,77.94
2023-03-06T17:14:56.540Z,80.42
2023-03-06T17:17:58.330Z,81.60
2023-03-06T17:21:00.415Z,83.02
2023-03-06T17:24:04.144Z,87.91
2023-03-06T17:27:06.062Z,93.95
2023-03-06T17:30:09.206Z,93.84
2023-03-06T17:33:11.043Z,92.06
2023-03-06T17:36:16.100Z,90.42
2023-03-06T17:39:17.841Z,89.51
2023-03-06T17:42:19.709Z,89.23
2023-03-06T17:45:21.891Z,88.64
2023-03-06T17:48:24.043Z,89.16
2023-03-06T17:51:26.480Z,88.03
2023-03-06T17:54:30.196Z,86.90
2023-03-06T17:57:32.389Z,87.28
2023-03-06T18:00:34.409Z,86.20
2023-03-06T18:03:38.499Z,85.89
2023-03-06T18:06:41.005Z,87.14
2023-03-06T18:09:43.596Z,87.10
2023-03-06T18:12:47.538Z,88.71
2023-03-06T18:15:49.763Z,87.01
2023-03-06T18:18:56.528Z,87.19
2023-03-06T18:21:58.724Z,86.96
2023-03-06T18:25:01.540Z,85.74
2023-03-06T18:28:04.040Z,86.35
2023-03-06T18:31:09.232Z,87.81
2023-03-06T18:34:14.182Z,86.60
2023-03-06T18:37:17.338Z,85.18
2023-03-06T18:40:20.304Z,85.77
2023-03-06T18:43:24.178Z,86.42
2023-03-06T18:46:33.828Z,85.85
2023-03-06T18:49:37.471Z,86.71
2023-03-06T18:52:41.238Z,87.81
2023-03-06T18:55:51.740Z,87.00
2023-03-06T18:58:54.446Z,87.35
2023-03-06T19:01:57.811Z,87.94
2023-03-06T19:05:00.190Z,87.41
2023-03-06T19:08:05.718Z,86.42
2023-03-06T19:11:11.989Z,86.70
2023-03-06T19:14:15.330Z,88.23
2023-03-06T19:17:18.318Z,89.84
2023-03-06T19:20:20.686Z,88.17
2023-03-06T19:23:24.408Z,88.05
2023-03-06T19:26:29.859Z,88.04
2023-03-06T19:29:34.505Z,87.06
2023-03-06T19:32:37.091Z,87.47
2023-03-06T19:35:39.748Z,87.56
2023-03-06T19:38:42.817Z,87.40
2023-03-06T19:41:51.251Z,87.99
2023-03-06T19:44:53.760Z,91.03
2023-03-06T19:48:01.155Z,95.32
2023-03-06T19:51:05.164Z,96.42
2023-03-06T19:54:07.812Z,96.02
2023-03-06T19:57:11.716Z,94.46
2023-03-06T20:00:14.991Z,99.29
2023-03-06T20:03:16.903Z,100.00
2023-03-06T20:06:21.079Z,100.00
2023-03-06T20:09:24.700Z,100.00
2023-03-06T20:12:29.208Z,100.00
2023-03-06T20:15:35.430Z,100.00
2023-03-06T20:18:39.235Z,100.00
2023-03-06T20:21:41.477Z,100.00
2023-03-06T20:24:44.059Z,100.00
2023-03-06T20:27:48.221Z,100.00
2023-03-06T20:30:51.073Z,100.00
2023-03-06T20:33:54.976Z,100.00
2023-03-06T20:36:58.556Z,100.00
2023-03-06T20:40:00.991Z,100.00
2023-03-06T20:43:03.764Z,100.00
2023-03-06T20:46:07.388Z,100.00
2023-03-06T20:49:11.648Z,100.00
2023-03-06T20:52:14.362Z,100.00
2023-03-06T20:55:16.927Z,100.00
2023-03-06T20:58:19.406Z,100.00
2023-03-06T21:01:27.486Z,100.00
2023-03-06T21:04:29.870Z,100.00
2023-03-06T21:07:32.000Z,100.00
2023-03-06T21:10:34.158Z,100.00
2023-03-06T21:13:36.031Z,100.00
2023-03-06T21:16:39.318Z,100.00
2023-03-06T21:19:42.038Z,100.00
2023-03-06T21:22:43.832Z,100.00
2023-03-06T21:25:49.706Z,100.00
2023-03-06T21:28:52.246Z,100.00
2023-03-06T21:31:53.942Z,100.00
2023-03-06T21:34:56.158Z,100.00
2023-03-06T21:37:57.892Z,100.00
2023-03-06T21:41:19.191Z,100.00
2023-03-06T21:44:21.112Z,100.00
2023-03-06T21:47:22.756Z,100.00
2023-03-06T21:50:25.078Z,100.00
2023-03-06T21:53:26.715Z,100.00
2023-03-06T21:56:28.574Z,100.00
2023-03-06T21:59:30.290Z,100.00
2023-03-06T22:02:31.907Z,100.00
2023-03-06T22:05:33.583Z,100.00
2023-03-06T22:08:35.233Z,100.00
2023-03-06T22:11:37.445Z,100.00
2023-03-06T22:14:39.169Z,100.00
2023-03-06T22:17:41.681Z,100.00
2023-03-06T22:20:43.421Z,100.00
2023-03-06T22:23:52.609Z,100.00
2023-03-06T22:26:54.237Z,100.00
2023-03-06T22:29:56.091Z,100.00
2023-03-06T22:32:57.749Z,100.00
2023-03-06T22:36:02.736Z,100.00
2023-03-06T22:39:04.499Z,100.00
2023-03-06T22:42:06.221Z,100.00
2023-03-06T22:45:08.441Z,100.00
2023-03-06T22:48:11.284Z,100.00
2023-03-06T22:51:18.889Z,100.00
2023-03-06T22:54:20.568Z,100.00
2023-03-06T22:57:22.236Z,100.00
2023-03-06T23:00:23.890Z,100.00
2023-03-06T23:03:25.523Z,100.00
2023-03-06T23:06:31.211Z,100.00
2023-03-06T23:09:33.172Z,100.00
2023-03-06T23:12:34.864Z,100.00
2023-03-06T23:15:37.027Z,100.00
2023-03-06T23:18:39.923Z,100.00
2023-03-06T23:21:41.848Z,100.00
2023-03-06T23:24:43.492Z,100.00
2023-03-06T23:27:45.130Z,100.00
2023-03-06T23:30:46.838Z,100.00
2023-03-06T23:33:48.655Z,100.00
2023-03-06T23:36:50.481Z,100.00
2023-03-06T23:39:52.139Z,100.00
2023-03-06T23:42:53.764Z,100.00
2023-03-06T23:45:56.063Z,100.00
2023-03-06T23:48:57.707Z,100.00
2023-03-06T23:51:59.654Z,100.00
2023-03-06T23:55:01.349Z,100.00
2023-03-06T23:58:02.996Z,100.00
